createdAt,value
2022-11-05T00:01:51.276Z,10.10
2022-11-05T00:04:36.823Z,9.77
2022-11-05T00:07:35.640Z,9.70
2022-11-05T00:10:07.364Z,9.90
2022-11-05T00:12:52.786Z,10.05
2022-11-05T00:15:37.977Z,9.40
2022-11-05T00:18:04.801Z,9.38
2022-11-05T00:20:31.553Z,8.57
2022-11-05T00:23:23.239Z,8.05
2022-11-05T00:26:00.192Z,7.70
2022-11-05T00:28:27.586Z,8.50
2022-11-05T00:30:54.663Z,9.27
2022-11-05T00:33:21.489Z,10.05
2022-11-05T00:35:48.242Z,9.27
2022-11-05T00:38:14.982Z,9.00
2022-11-05T00:40:41.697Z,9.30
2022-11-05T00:43:26.969Z,8.27
2022-11-05T00:45:53.764Z,9.20
2022-11-05T00:48:39.624Z,7.88
2022-11-05T00:51:06.814Z,7.82
2022-11-05T00:53:33.955Z,9.63
2022-11-05T00:56:01.018Z,9.20
2022-11-05T00:58:29.154Z,8.57
2022-11-05T01:00:59.665Z,8.85
2022-11-05T01:03:28.280Z,8.57
2022-11-05T01:05:59.300Z,8.63
2022-11-05T01:08:27.364Z,7.43
2022-11-05T01:10:55.870Z,8.15
2022-11-05T01:13:24.575Z,8.77
2022-11-05T01:15:51.418Z,8.30
2022-11-05T01:18:18.676Z,7.57
2022-11-05T01:20:45.524Z,7.75
2022-11-05T01:23:13.883Z,7.22
2022-11-05T01:25:42.030Z,7.88
2022-11-05T01:28:09.677Z,7.70
2022-11-05T01:30:37.250Z,7.30
2022-11-05T01:33:04.161Z,7.45
2022-11-05T01:35:31.006Z,6.53
2022-11-05T01:37:57.776Z,6.90
2022-11-05T01:40:25.368Z,6.22
2022-11-05T01:42:52.103Z,6.75
2022-11-05T01:45:24.273Z,7.78
2022-11-05T01:48:06.837Z,7.20
2022-11-05T01:50:44.110Z,6.47
2022-11-05T01:53:29.335Z,7.25
2022-11-05T01:56:18.230Z,6.47
2022-11-05T01:58:48.686Z,6.28
2022-11-05T02:01:15.816Z,6.28
2022-11-05T02:03:42.898Z,6.32
2022-11-05T02:06:09.752Z,5.47
2022-11-05T02:08:45.355Z,6.45
2022-11-05T02:11:16.701Z,6.15
2022-11-05T02:13:43.487Z,6.10
2022-11-05T02:16:31.792Z,5.55
2022-11-05T02:19:25.810Z,4.65
2022-11-05T02:22:23.554Z,4.90
2022-11-05T02:25:24.193Z,5.63
2022-11-05T02:28:19.039Z,5.97
2022-11-05T02:30:54.041Z,4.57
2022-11-05T02:33:56.525Z,4.82
2022-11-05T02:36:41.496Z,5.03
2022-11-05T02:39:20.610Z,5.05
2022-11-05T02:42:19.804Z,4.13
2022-11-05T02:45:18.814Z,4.43
2022-11-05T02:47:52.356Z,5.47
2022-11-05T02:50:30.040Z,3.30
2022-11-05T02:53:00.958Z,3.40
2022-11-05T02:55:47.401Z,2.50
2022-11-05T02:58:14.436Z,2.40
2022-11-05T03:00:49.060Z,3.33
2022-11-05T03:03:22.821Z,2.58
2022-11-05T03:06:12.048Z,2.65
2022-11-05T03:08:44.951Z,2.72
2022-11-05T03:11:17.743Z,2.33
2022-11-05T03:14:08.442Z,2.13
2022-11-05T03:16:47.983Z,2.28
2022-11-05T03:19:22.992Z,1.95
2022-11-05T03:21:56.362Z,2.63
2022-11-05T03:24:25.662Z,2.20
2022-11-05T03:27:11.112Z,2.60
2022-11-05T03:29:41.605Z,2.47
2022-11-05T03:32:08.433Z,2.92
2022-11-05T03:34:50.043Z,2.53
2022-11-05T03:37:18.312Z,3.10
2022-11-05T03:39:50.445Z,2.28
2022-11-05T03:42:18.744Z,2.55
2022-11-05T03:44:48.138Z,2.58
2022-11-05T03:47:17.214Z,2.95
2022-11-05T03:50:07.777Z,3.72
2022-11-05T03:52:38.132Z,2.95
2022-11-05T03:55:05.528Z,2.85
2022-11-05T03:57:34.405Z,3.05
2022-11-05T04:00:01.211Z,3.03
2022-11-05T04:02:38.830Z,3.13
2022-11-05T04:05:06.063Z,3.03
2022-11-05T04:07:51.299Z,2.70
2022-11-05T04:10:36.709Z,2.67
2022-11-05T04:13:22.157Z,3.42
2022-11-05T04:16:07.624Z,3.05
2022-11-05T04:18:34.458Z,2.70
2022-11-05T04:21:19.936Z,3.08
2022-11-05T04:24:05.332Z,3.00
2022-11-05T04:26:32.188Z,3.13
2022-11-05T04:29:17.516Z,2.53
2022-11-05T04:31:44.329Z,3.13
2022-11-05T04:34:11.085Z,2.53
2022-11-05T04:36:37.979Z,2.30
2022-11-05T04:39:04.796Z,2.72
2022-11-05T04:41:31.526Z,2.53
2022-11-05T04:43:58.296Z,2.40
2022-11-05T04:46:25.119Z,2.25
2022-11-05T04:48:51.839Z,2.30
2022-11-05T04:51:18.706Z,2.67
2022-11-05T04:53:45.506Z,2.70
2022-11-05T04:56:14.514Z,1.92
2022-11-05T04:58:41.743Z,2.55
2022-11-05T05:01:16.007Z,2.70
2022-11-05T05:03:42.934Z,2.67
2022-11-05T05:06:09.791Z,2.25
2022-11-05T05:08:36.749Z,2.58
2022-11-05T05:11:08.632Z,2.60
2022-11-05T05:13:35.445Z,3.03
2022-11-05T05:16:07.103Z,2.80
2022-11-05T05:18:34.023Z,3.03
2022-11-05T05:21:19.287Z,2.17
2022-11-05T05:23:47.899Z,2.67
2022-11-05T05:26:15.752Z,2.60
2022-11-05T05:28:42.509Z,2.35
2022-11-05T05:31:09.411Z,2.30
2022-11-05T05:33:36.218Z,2.40
2022-11-05T05:36:08.397Z,2.95
2022-11-05T05:38:37.887Z,2.90
2022-11-05T05:41:04.742Z,2.45
2022-11-05T05:43:32.284Z,2.15
2022-11-05T05:46:06.081Z,2.33
2022-11-05T05:48:33.000Z,2.63
2022-11-05T05:51:03.496Z,2.50
2022-11-05T05:53:30.345Z,2.30
2022-11-05T05:55:57.180Z,2.60
2022-11-05T05:58:24.588Z,2.30
2022-11-05T06:00:51.323Z,2.10
2022-11-05T06:03:18.063Z,2.15
2022-11-05T06:05:44.912Z,2.15
2022-11-05T06:08:11.717Z,2.53
2022-11-05T06:10:38.585Z,1.83
2022-11-05T06:13:05.409Z,1.73
2022-11-05T06:15:35.850Z,1.60
2022-11-05T06:18:03.004Z,2.72
2022-11-05T06:20:29.782Z,1.50
2022-11-05T06:22:57.241Z,1.45
2022-11-05T06:25:24.702Z,2.00
2022-11-05T06:27:51.480Z,1.63
2022-11-05T06:30:18.335Z,1.55
2022-11-05T06:32:45.109Z,1.25
2022-11-05T06:35:11.957Z,1.45
2022-11-05T06:37:38.715Z,1.20
2022-11-05T06:40:06.415Z,1.15
2022-11-05T06:42:33.275Z,1.10
2022-11-05T06:45:00.106Z,1.13
2022-11-05T06:47:26.928Z,1.40
2022-11-05T06:49:53.647Z,1.33
2022-11-05T06:52:20.812Z,1.00
2022-11-05T06:54:47.738Z,1.23
2022-11-05T06:57:14.552Z,1.00
2022-11-05T06:59:41.411Z,1.45
2022-11-05T07:02:10.611Z,1.02
2022-11-05T07:04:37.494Z,1.10
2022-11-05T07:07:04.276Z,0.90
2022-11-05T07:09:31.119Z,0.70
2022-11-05T07:11:57.986Z,0.80
2022-11-05T07:14:24.752Z,0.52
2022-11-05T07:16:51.518Z,0.95
2022-11-05T07:19:18.366Z,0.80
2022-11-05T07:21:50.167Z,0.90
2022-11-05T07:24:16.961Z,0.70
2022-11-05T07:26:46.947Z,0.88
2022-11-05T07:29:13.700Z,0.93
2022-11-05T07:31:40.464Z,0.90
2022-11-05T07:34:10.063Z,1.25
2022-11-05T07:36:39.349Z,0.90
2022-11-05T07:39:06.385Z,1.13
2022-11-05T07:41:33.119Z,1.10
2022-11-05T07:44:00.086Z,1.60
2022-11-05T07:46:28.333Z,1.33
2022-11-05T07:48:55.124Z,1.20
2022-11-05T07:51:22.240Z,0.73
2022-11-05T07:53:49.046Z,1.55
2022-11-05T07:56:16.161Z,0.80
2022-11-05T07:58:43.049Z,0.70
2022-11-05T08:01:10.090Z,0.95
2022-11-05T08:03:37.004Z,1.25
2022-11-05T08:06:03.951Z,1.00
2022-11-05T08:08:30.787Z,1.00
2022-11-05T08:11:15.532Z,0.70
2022-11-05T08:13:43.989Z,0.98
2022-11-05T08:16:11.003Z,0.90
2022-11-05T08:18:37.925Z,0.60
2022-11-05T08:21:05.435Z,0.75
2022-11-05T08:23:32.488Z,1.25
2022-11-05T08:25:59.326Z,0.95
2022-11-05T08:28:26.150Z,0.70
2022-11-05T08:30:54.580Z,0.73
2022-11-05T08:33:21.503Z,0.70
2022-11-05T08:35:48.400Z,0.85
2022-11-05T08:38:16.776Z,1.05
2022-11-05T08:40:44.634Z,0.65
2022-11-05T08:43:12.960Z,0.77
2022-11-05T08:45:40.278Z,0.93
2022-11-05T08:48:11.757Z,0.50
2022-11-05T08:50:38.811Z,0.88
2022-11-05T08:53:05.912Z,0.88
2022-11-05T08:55:32.853Z,0.70
2022-11-05T08:58:04.177Z,1.20
2022-11-05T09:00:32.363Z,1.08
2022-11-05T09:03:03.406Z,0.70
2022-11-05T09:05:30.732Z,0.70
2022-11-05T09:08:01.004Z,0.88
2022-11-05T09:10:40.219Z,0.73
2022-11-05T09:13:13.044Z,0.90
2022-11-05T09:15:43.006Z,1.20
2022-11-05T09:18:11.679Z,0.85
2022-11-05T09:20:40.081Z,0.80
2022-11-05T09:23:07.737Z,0.90
2022-11-05T09:25:34.646Z,1.02
2022-11-05T09:28:16.126Z,1.08
2022-11-05T09:30:45.582Z,1.00
2022-11-05T09:33:12.785Z,0.52
2022-11-05T09:35:40.917Z,0.95
2022-11-05T09:38:08.152Z,0.95
2022-11-05T09:41:19.760Z,0.60
2022-11-05T09:43:51.395Z,0.70
2022-11-05T09:46:29.076Z,0.90
2022-11-05T09:48:58.910Z,1.25
2022-11-05T09:51:29.279Z,1.05
2022-11-05T09:53:56.898Z,0.70
2022-11-05T09:56:26.121Z,1.00
2022-11-05T09:59:01.196Z,1.13
2022-11-05T10:01:35.880Z,0.63
2022-11-05T10:04:06.741Z,0.70
2022-11-05T10:06:33.529Z,0.73
2022-11-05T10:09:03.554Z,1.15
2022-11-05T10:11:37.207Z,0.90
2022-11-05T10:16:36.165Z,0.65
2022-11-05T10:19:06.404Z,1.00
2022-11-05T10:22:04.271Z,0.70
2022-11-05T10:24:20.813Z,0.88
2022-11-05T10:26:49.494Z,0.85
2022-11-05T10:29:33.359Z,0.63
2022-11-05T10:34:35.434Z,0.82
2022-11-05T10:37:02.561Z,1.00
2022-11-05T10:39:29.973Z,1.08
2022-11-05T10:42:23.162Z,0.90
2022-11-05T10:44:58.140Z,0.70
2022-11-05T10:47:48.806Z,1.10
2022-11-05T10:50:20.712Z,0.70
2022-11-05T10:52:59.747Z,0.50
2022-11-05T10:55:29.360Z,0.50
2022-11-05T10:58:06.743Z,0.60
2022-11-05T11:00:33.553Z,0.50
2022-11-05T11:03:02.389Z,0.40
2022-11-05T11:05:35.484Z,0.50
2022-11-05T11:08:11.248Z,0.50
2022-11-05T11:10:48.382Z,0.47
2022-11-05T11:13:21.392Z,1.20
2022-11-05T11:15:50.735Z,0.60
2022-11-05T11:18:40.184Z,1.00
2022-11-05T11:21:16.386Z,0.95
2022-11-05T11:23:43.862Z,1.33
2022-11-05T11:26:11.083Z,0.68
2022-11-05T11:28:47.093Z,1.00
2022-11-05T11:31:13.811Z,0.80
2022-11-05T11:33:42.384Z,0.70
2022-11-05T11:36:10.047Z,0.85
2022-11-05T11:38:37.160Z,1.08
2022-11-05T11:41:22.870Z,0.93
2022-11-05T11:43:49.654Z,1.35
2022-11-05T11:46:18.408Z,0.93
2022-11-05T11:48:47.543Z,1.10
2022-11-05T11:51:37.616Z,1.27
2022-11-05T11:54:04.918Z,1.10
2022-11-05T11:56:43.603Z,1.23
2022-11-05T11:59:53.979Z,0.95
2022-11-05T12:02:35.750Z,0.88
2022-11-05T12:05:11.999Z,1.17
2022-11-05T12:07:58.961Z,1.33
2022-11-05T12:10:48.152Z,0.90
2022-11-05T12:13:20.983Z,1.10
2022-11-05T12:15:54.498Z,1.30
2022-11-05T12:18:30.211Z,1.00
2022-11-05T12:21:47.754Z,2.20
2022-11-05T12:24:16.900Z,1.63
2022-11-05T12:26:55.770Z,1.33
2022-11-05T12:29:36.808Z,2.38
2022-11-05T12:32:21.715Z,0.98
2022-11-05T12:35:26.347Z,0.90
2022-11-05T12:38:03.207Z,0.70
2022-11-05T12:40:48.923Z,0.90
2022-11-05T12:43:43.962Z,0.90
2022-11-05T12:46:49.883Z,1.20
2022-11-05T12:49:38.809Z,0.93
2022-11-05T12:52:23.708Z,1.10
2022-11-05T12:55:04.482Z,1.00
2022-11-05T12:57:33.207Z,0.95
2022-11-05T13:00:25.274Z,1.58
2022-11-05T13:03:10.748Z,1.52
2022-11-05T13:05:43.525Z,0.77
2022-11-05T13:08:33.433Z,0.65
2022-11-05T13:11:24.079Z,0.93
2022-11-05T13:14:15.182Z,2.08
2022-11-05T13:16:44.926Z,1.02
2022-11-05T13:19:16.833Z,0.90
2022-11-05T13:21:45.418Z,1.52
2022-11-05T13:24:17.532Z,0.90
2022-11-05T13:27:03.361Z,1.00
2022-11-05T13:29:37.686Z,2.53
2022-11-05T13:32:24.175Z,0.73
2022-11-05T13:35:01.303Z,1.10
2022-11-05T13:37:49.471Z,1.00
2022-11-05T13:40:18.262Z,1.00
2022-11-05T13:43:03.202Z,0.70
2022-11-05T13:46:11.260Z,0.80
2022-11-05T13:48:56.978Z,0.90
2022-11-05T13:51:39.577Z,0.95
2022-11-05T13:54:34.254Z,1.02
2022-11-05T13:57:14.789Z,0.80
2022-11-05T14:00:01.094Z,1.50
2022-11-05T14:02:39.973Z,0.77
2022-11-05T14:05:07.442Z,0.90
2022-11-05T14:07:36.857Z,1.30
2022-11-05T14:10:31.082Z,1.10
2022-11-05T14:12:58.908Z,0.95
2022-11-05T14:15:29.722Z,0.85
2022-11-05T14:18:02.247Z,0.70
2022-11-05T14:20:32.146Z,0.93
2022-11-05T14:23:17.970Z,1.02
2022-11-05T14:25:45.059Z,1.20
2022-11-05T14:28:37.935Z,1.02
2022-11-05T14:31:20.357Z,0.85
2022-11-05T14:34:08.608Z,1.10
2022-11-05T14:36:39.118Z,1.15
2022-11-05T14:39:23.727Z,0.95
2022-11-05T14:42:02.009Z,2.25
2022-11-05T14:44:30.313Z,0.98
2022-11-05T14:47:02.730Z,1.10
2022-11-05T14:49:33.020Z,1.75
2022-11-05T14:52:00.847Z,1.10
2022-11-05T14:54:45.423Z,2.25
2022-11-05T14:57:14.762Z,0.88
2022-11-05T14:59:57.195Z,1.70
2022-11-05T15:02:56.768Z,1.20
2022-11-05T15:05:39.416Z,1.15
2022-11-05T15:08:31.995Z,2.05
2022-11-05T15:11:13.488Z,1.70
2022-11-05T15:13:53.231Z,2.05
2022-11-05T15:16:25.462Z,2.70
2022-11-05T15:18:53.592Z,2.33
2022-11-05T15:21:20.673Z,5.75
2022-11-05T15:23:48.829Z,2.70
2022-11-05T15:26:26.898Z,2.50
2022-11-05T15:28:54.286Z,1.65
2022-11-05T15:31:26.800Z,2.53
2022-11-05T15:34:11.860Z,2.08
2022-11-05T15:36:38.621Z,2.13
2022-11-05T15:39:29.404Z,2.17
2022-11-05T15:41:57.888Z,1.30
2022-11-05T15:44:31.622Z,2.92
2022-11-05T15:49:35.063Z,3.25
2022-11-05T15:52:01.841Z,3.47
2022-11-05T15:54:30.497Z,1.90
2022-11-05T15:56:58.513Z,2.05
2022-11-05T15:59:26.574Z,2.67
2022-11-05T16:02:22.286Z,2.25
2022-11-05T16:04:49.185Z,3.67
2022-11-05T16:07:16.090Z,3.80
2022-11-05T16:09:49.896Z,2.58
2022-11-05T16:12:19.730Z,1.58
2022-11-05T16:15:04.868Z,0.90
2022-11-05T16:17:33.945Z,1.48
2022-11-05T16:20:00.766Z,1.65
2022-11-05T16:22:44.303Z,1.02
2022-11-05T16:25:43.457Z,1.27
2022-11-05T16:28:23.382Z,1.00
2022-11-05T16:30:56.941Z,1.17
2022-11-05T16:35:51.019Z,2.85
2022-11-05T16:38:17.997Z,1.02
2022-11-05T16:40:44.913Z,1.13
2022-11-05T16:43:23.378Z,1.08
2022-11-05T16:45:52.876Z,0.90
2022-11-05T16:48:19.728Z,0.60
2022-11-05T16:50:46.870Z,2.72
2022-11-05T16:53:13.814Z,0.90
2022-11-05T16:55:41.739Z,1.23
2022-11-05T16:58:19.616Z,1.38
2022-11-05T17:00:47.282Z,1.05
2022-11-05T17:03:14.048Z,1.60
2022-11-05T17:05:40.855Z,0.93
2022-11-05T17:08:08.715Z,1.50
2022-11-05T17:10:35.626Z,1.80
2022-11-05T17:13:02.459Z,2.92
2022-11-05T17:15:36.045Z,1.20
2022-11-05T17:20:34.946Z,1.83
2022-11-05T17:23:05.813Z,2.03
2022-11-05T17:25:32.719Z,1.27
2022-11-05T17:27:59.597Z,1.23
2022-11-05T17:30:26.507Z,2.00
2022-11-05T17:32:53.622Z,5.10
2022-11-05T17:35:20.661Z,5.47
2022-11-05T17:37:47.616Z,7.25
2022-11-05T17:40:16.209Z,2.92
2022-11-05T17:42:43.269Z,4.45
2022-11-05T17:45:11.339Z,1.95
2022-11-05T17:47:38.443Z,2.25
2022-11-05T17:50:06.407Z,2.63
2022-11-05T17:52:33.607Z,3.47
2022-11-05T17:55:00.456Z,3.80
2022-11-05T17:57:27.637Z,4.40
2022-11-05T17:59:54.536Z,5.40
2022-11-05T18:02:21.609Z,4.47
2022-11-05T18:04:48.541Z,7.63
2022-11-05T18:07:15.495Z,6.93
2022-11-05T18:09:42.324Z,11.57
2022-11-05T18:12:09.225Z,9.23
2022-11-05T18:14:36.480Z,4.72
2022-11-05T18:17:03.328Z,5.00
2022-11-05T18:19:30.266Z,9.38
2022-11-05T18:21:57.095Z,3.25
2022-11-05T18:24:24.044Z,3.58
2022-11-05T18:26:51.151Z,3.13
2022-11-05T18:29:17.939Z,3.45
2022-11-05T18:31:44.760Z,2.80
2022-11-05T18:34:14.732Z,4.18
2022-11-05T18:36:43.513Z,3.60
2022-11-05T18:39:12.294Z,4.40
2022-11-05T18:41:39.513Z,3.60
2022-11-05T18:44:06.344Z,4.50
2022-11-05T18:49:31.420Z,7.00
2022-11-05T18:51:58.454Z,38.63
2022-11-05T18:54:25.330Z,35.75
2022-11-05T18:56:52.512Z,28.70
2022-11-05T18:59:35.758Z,25.17
2022-11-05T19:02:04.135Z,55.78
2022-11-05T19:04:31.182Z,26.77
2022-11-05T19:07:03.314Z,19.90
2022-11-05T19:09:32.015Z,14.23
2022-11-05T19:11:58.855Z,26.98
2022-11-05T19:14:25.717Z,15.80
2022-11-05T19:16:53.010Z,28.10
2022-11-05T19:19:19.903Z,19.52
2022-11-05T19:21:46.965Z,20.13
2022-11-05T19:24:17.461Z,48.97
2022-11-05T19:26:44.901Z,18.10
2022-11-05T19:29:11.787Z,17.45
2022-11-05T19:31:38.786Z,11.43
2022-11-05T19:34:05.711Z,8.80
2022-11-05T19:36:32.935Z,6.63
2022-11-05T19:39:01.904Z,9.07
2022-11-05T19:41:28.818Z,11.88
2022-11-05T19:43:57.795Z,15.98
2022-11-05T19:46:24.724Z,12.65
2022-11-05T19:48:51.675Z,8.38
2022-11-05T19:51:20.746Z,7.57
2022-11-05T19:53:47.660Z,7.18
2022-11-05T19:56:16.047Z,4.85
2022-11-05T19:58:42.985Z,5.03
2022-11-05T20:01:10.418Z,6.75
2022-11-05T20:03:37.786Z,5.32
2022-11-05T20:06:12.481Z,5.00
2022-11-05T20:08:59.738Z,5.03
2022-11-05T20:11:27.017Z,4.95
2022-11-05T20:13:54.484Z,5.10
2022-11-05T20:16:36.789Z,4.40
2022-11-05T20:19:04.595Z,4.78
2022-11-05T20:21:31.503Z,5.35
2022-11-05T20:23:58.893Z,6.85
2022-11-05T20:26:26.280Z,4.30
2022-11-05T20:28:53.541Z,4.70
2022-11-05T20:31:20.359Z,5.07
2022-11-05T20:33:47.272Z,5.10
2022-11-05T20:36:16.595Z,8.88
2022-11-05T20:38:44.678Z,3.85
2022-11-05T20:41:12.109Z,4.32
2022-11-05T20:43:40.891Z,3.90
2022-11-05T20:46:08.173Z,3.50
2022-11-05T20:48:35.065Z,3.30
2022-11-05T20:51:16.515Z,3.20
2022-11-05T20:53:43.500Z,4.32
2022-11-05T20:56:22.722Z,3.63
2022-11-05T20:58:49.832Z,4.43
2022-11-05T21:01:16.904Z,3.67
2022-11-05T21:03:46.978Z,3.92
2022-11-05T21:06:13.918Z,4.55
2022-11-05T21:08:40.684Z,4.80
2022-11-05T21:11:10.687Z,7.82
2022-11-05T21:13:37.843Z,4.97
2022-11-05T21:16:06.232Z,4.50
2022-11-05T21:18:33.913Z,4.47
2022-11-05T21:21:03.992Z,5.03
2022-11-05T21:23:30.925Z,4.68
2022-11-05T21:26:08.084Z,4.35
2022-11-05T21:28:35.305Z,5.05
2022-11-05T21:31:03.259Z,4.72
2022-11-05T21:33:30.112Z,5.25
2022-11-05T21:35:56.946Z,4.38
2022-11-05T21:38:23.883Z,6.45
2022-11-05T21:40:50.753Z,9.20
2022-11-05T21:43:17.939Z,6.07
2022-11-05T21:45:45.390Z,6.18
2022-11-05T21:48:15.583Z,6.78
2022-11-05T21:51:01.189Z,4.93
2022-11-05T21:53:49.837Z,3.47
2022-11-05T21:56:40.743Z,2.88
2022-11-05T21:59:31.923Z,1.83
2022-11-05T22:02:03.019Z,2.30
2022-11-05T22:04:41.264Z,2.08
2022-11-05T22:07:08.607Z,3.10
2022-11-05T22:09:35.646Z,2.55
2022-11-05T22:12:02.605Z,2.90
2022-11-05T22:14:29.476Z,3.15
2022-11-05T22:16:56.509Z,3.75
2022-11-05T22:19:23.638Z,4.30
2022-11-05T22:21:50.536Z,5.70
2022-11-05T22:24:17.724Z,5.00
2022-11-05T22:26:47.091Z,4.57
2022-11-05T22:29:14.090Z,6.45
2022-11-05T22:31:40.874Z,7.10
2022-11-05T22:34:07.732Z,3.95
2022-11-05T22:36:34.741Z,4.82
2022-11-05T22:39:01.729Z,5.32
2022-11-05T22:41:28.585Z,3.33
2022-11-05T22:43:55.716Z,3.45
2022-11-05T22:46:23.627Z,3.10
2022-11-05T22:48:50.664Z,3.33
2022-11-05T22:51:20.659Z,2.80
2022-11-05T22:53:47.557Z,3.58
2022-11-05T22:56:15.949Z,4.22
2022-11-05T22:58:42.848Z,3.65
2022-11-05T23:01:11.762Z,4.75
2022-11-05T23:03:39.597Z,4.97
2022-11-05T23:06:27.938Z,4.95
2022-11-05T23:09:13.388Z,4.82
2022-11-05T23:11:40.920Z,3.20
2022-11-05T23:14:08.945Z,2.47
2022-11-05T23:16:54.852Z,1.52
2022-11-05T23:19:40.085Z,7.18
2022-11-05T23:22:35.374Z,0.63
2022-11-05T23:25:02.286Z,0.80
2022-11-05T23:27:32.751Z,0.40
2022-11-05T23:30:00.134Z,0.70
2022-11-05T23:32:28.387Z,0.52
2022-11-05T23:34:56.534Z,0.50
2022-11-05T23:37:44.492Z,0.50
2022-11-05T23:40:15.446Z,0.40
2022-11-05T23:43:01.838Z,1.00
2022-11-05T23:46:04.516Z,0.70
2022-11-05T23:48:35.750Z,0.30
2022-11-05T23:51:08.228Z,0.50
2022-11-05T23:53:36.131Z,0.50
2022-11-05T23:56:11.031Z,0.40
2022-11-05T23:58:38.164Z,0.40
